sensor_id;sensor_type;location;lat;lon;timestamp;temperature;humidity
18163;DHT22;9206;50.994;4.538;2023-08-07T00:00:37;11.90;99.90
18163;DHT22;9206;50.994;4.538;2023-08-07T00:03:24;11.80;99.90
18163;DHT22;9206;50.994;4.538;2023-08-07T00:06:12;11.90;99.90
18163;DHT22;9206;50.994;4.538;2023-08-07T00:09:06;11.90;99.90
18163;DHT22;9206;50.994;4.538;2023-08-07T00:11:54;11.80;99.90
18163;DHT22;9206;50.994;4.538;2023-08-07T00:14:44;11.80;99.90
18163;DHT22;9206;50.994;4.538;2023-08-07T00:17:46;11.80;99.90
18163;DHT22;9206;50.994;4.538;2023-08-07T00:20:34;11.80;99.90
18163;DHT22;9206;50.994;4.538;2023-08-07T00:23:24;11.80;99.90
18163;DHT22;9206;50.994;4.538;2023-08-07T00:26:27;11.80;99.90
18163;DHT22;9206;50.994;4.538;2023-08-07T00:29:16;11.80;99.90
18163;DHT22;9206;50.994;4.538;2023-08-07T00:32:04;11.70;99.90
18163;DHT22;9206;50.994;4.538;2023-08-07T00:34:53;11.70;99.90
18163;DHT22;9206;50.994;4.538;2023-08-07T00:37:40;11.60;99.90
18163;DHT22;9206;50.994;4.538;2023-08-07T00:40:35;11.50;99.90
18163;DHT22;9206;50.994;4.538;2023-08-07T00:43:27;11.50;99.90
18163;DHT22;9206;50.994;4.538;2023-08-07T00:46:17;11.50;99.90
18163;DHT22;9206;50.994;4.538;2023-08-07T00:49:07;11.60;99.90
18163;DHT22;9206;50.994;4.538;2023-08-07T00:52:01;11.60;99.90
18163;DHT22;9206;50.994;4.538;2023-08-07T00:54:51;11.60;99.90
18163;DHT22;9206;50.994;4.538;2023-08-07T00:57:39;11.60;99.90
18163;DHT22;9206;50.994;4.538;2023-08-07T01:00:31;11.70;99.90
18163;DHT22;9206;50.994;4.538;2023-08-07T01:03:21;11.70;99.90
18163;DHT22;9206;50.994;4.538;2023-08-07T01:06:15;11.70;99.90
18163;DHT22;9206;50.994;4.538;2023-08-07T01:09:03;11.60;99.90
18163;DHT22;9206;50.994;4.538;2023-08-07T01:11:57;11.50;99.90
18163;DHT22;9206;50.994;4.538;2023-08-07T01:14:52;11.50;99.90
18163;DHT22;9206;50.994;4.538;2023-08-07T01:17:44;11.50;99.90
18163;DHT22;9206;50.994;4.538;2023-08-07T01:20:33;11.40;99.90
18163;DHT22;9206;50.994;4.538;2023-08-07T01:23:28;11.50;99.90
18163;DHT22;9206;50.994;4.538;2023-08-07T01:26:19;11.50;99.90
18163;DHT22;9206;50.994;4.538;2023-08-07T01:29:15;11.50;99.90
18163;DHT22;9206;50.994;4.538;2023-08-07T01:32:08;11.50;99.90
18163;DHT22;9206;50.994;4.538;2023-08-07T01:34:58;11.50;99.90
18163;DHT22;9206;50.994;4.538;2023-08-07T01:37:47;11.60;99.90
18163;DHT22;9206;50.994;4.538;2023-08-07T01:40:39;11.50;99.90
18163;DHT22;9206;50.994;4.538;2023-08-07T01:43:33;11.60;99.90
18163;DHT22;9206;50.994;4.538;2023-08-07T01:46:21;11.60;99.90
18163;DHT22;9206;50.994;4.538;2023-08-07T01:49:10;11.60;99.90
18163;DHT22;9206;50.994;4.538;2023-08-07T01:52:01;11.60;99.90
18163;DHT22;9206;50.994;4.538;2023-08-07T01:54:51;11.60;99.90
18163;DHT22;9206;50.994;4.538;2023-08-07T01:57:46;11.50;99.90
18163;DHT22;9206;50.994;4.538;2023-08-07T02:00:39;11.50;99.90
18163;DHT22;9206;50.994;4.538;2023-08-07T02:03:27;11.50;99.90
18163;DHT22;9206;50.994;4.538;2023-08-07T02:06:16;11.40;99.90
18163;DHT22;9206;50.994;4.538;2023-08-07T02:09:09;11.30;99.90
18163;DHT22;9206;50.994;4.538;2023-08-07T02:11:56;11.30;99.90
18163;DHT22;9206;50.994;4.538;2023-08-07T02:14:48;11.30;99.90
18163;DHT22;9206;50.994;4.538;2023-08-07T02:17:36;11.20;99.90
18163;DHT22;9206;50.994;4.538;2023-08-07T02:20:26;11.20;99.90
18163;DHT22;9206;50.994;4.538;2023-08-07T02:23:13;11.30;99.90
18163;DHT22;9206;50.994;4.538;2023-08-07T02:26:05;11.20;99.90
18163;DHT22;9206;50.994;4.538;2023-08-07T02:28:52;11.20;99.90
18163;DHT22;9206;50.994;4.538;2023-08-07T02:31:43;11.20;99.90
18163;DHT22;9206;50.994;4.538;2023-08-07T02:34:30;11.20;99.90
18163;DHT22;9206;50.994;4.538;2023-08-07T02:37:18;11.10;99.90
18163;DHT22;9206;50.994;4.538;2023-08-07T02:40:09;11.10;99.90
18163;DHT22;9206;50.994;4.538;2023-08-07T02:43:07;11.10;99.90
18163;DHT22;9206;50.994;4.538;2023-08-07T02:45:57;11.10;99.90
18163;DHT22;9206;50.994;4.538;2023-08-07T02:48:47;11.00;99.90
18163;DHT22;9206;50.994;4.538;2023-08-07T02:51:40;11.10;99.90
18163;DHT22;9206;50.994;4.538;2023-08-07T02:54:34;11.10;99.90
18163;DHT22;9206;50.994;4.538;2023-08-07T02:57:23;11.10;99.90
18163;DHT22;9206;50.994;4.538;2023-08-07T03:00:16;11.00;99.90
18163;DHT22;9206;50.994;4.538;2023-08-07T03:03:09;11.00;99.90
18163;DHT22;9206;50.994;4.538;2023-08-07T03:05:59;11.00;99.90
18163;DHT22;9206;50.994;4.538;2023-08-07T03:08:47;11.00;99.90
18163;DHT22;9206;50.994;4.538;2023-08-07T03:11:41;10.90;99.90
18163;DHT22;9206;50.994;4.538;2023-08-07T03:14:28;11.00;99.90
18163;DHT22;9206;50.994;4.538;2023-08-07T03:17:19;11.00;99.90
18163;DHT22;9206;50.994;4.538;2023-08-07T03:20:09;11.00;99.90
18163;DHT22;9206;50.994;4.538;2023-08-07T03:22:59;11.10;99.90
18163;DHT22;9206;50.994;4.538;2023-08-07T03:25:46;11.20;99.90
18163;DHT22;9206;50.994;4.538;2023-08-07T03:28:36;11.30;99.90
18163;DHT22;9206;50.994;4.538;2023-08-07T03:31:26;11.40;99.90
18163;DHT22;9206;50.994;4.538;2023-08-07T03:34:16;11.40;99.90
18163;DHT22;9206;50.994;4.538;2023-08-07T03:37:09;11.40;99.90
18163;DHT22;9206;50.994;4.538;2023-08-07T03:40:00;11.40;99.90
18163;DHT22;9206;50.994;4.538;2023-08-07T03:42:51;11.40;99.90
18163;DHT22;9206;50.994;4.538;2023-08-07T03:45:44;11.50;99.90
18163;DHT22;9206;50.994;4.538;2023-08-07T03:48:32;11.50;99.90
18163;DHT22;9206;50.994;4.538;2023-08-07T03:51:25;11.50;99.90
18163;DHT22;9206;50.994;4.538;2023-08-07T03:54:19;11.50;99.90
18163;DHT22;9206;50.994;4.538;2023-08-07T03:57:08;11.50;99.90
18163;DHT22;9206;50.994;4.538;2023-08-07T03:59:57;11.50;99.90
18163;DHT22;9206;50.994;4.538;2023-08-07T04:02:52;11.40;99.90
18163;DHT22;9206;50.994;4.538;2023-08-07T04:05:45;11.40;99.90
18163;DHT22;9206;50.994;4.538;2023-08-07T04:08:36;11.30;99.90
18163;DHT22;9206;50.994;4.538;2023-08-07T04:11:25;11.30;99.90
18163;DHT22;9206;50.994;4.538;2023-08-07T04:14:21;11.30;99.90
18163;DHT22;9206;50.994;4.538;2023-08-07T04:17:09;11.30;99.90
18163;DHT22;9206;50.994;4.538;2023-08-07T04:20:04;11.30;99.90
18163;DHT22;9206;50.994;4.538;2023-08-07T04:22:58;11.30;99.90
18163;DHT22;9206;50.994;4.538;2023-08-07T04:25:49;11.30;99.90
18163;DHT22;9206;50.994;4.538;2023-08-07T04:28:39;11.30;99.90
18163;DHT22;9206;50.994;4.538;2023-08-07T04:31:30;11.40;99.90
18163;DHT22;9206;50.994;4.538;2023-08-07T04:34:24;11.40;99.90
18163;DHT22;9206;50.994;4.538;2023-08-07T04:37:12;11.40;99.90
18163;DHT22;9206;50.994;4.538;2023-08-07T04:39:59;11.50;99.90
18163;DHT22;9206;50.994;4.538;2023-08-07T04:42:48;11.50;99.90
18163;DHT22;9206;50.994;4.538;2023-08-07T04:45:36;11.50;99.90
18163;DHT22;9206;50.994;4.538;2023-08-07T04:48:32;11.50;99.90
18163;DHT22;9206;50.994;4.538;2023-08-07T04:51:20;11.50;99.90
18163;DHT22;9206;50.994;4.538;2023-08-07T04:54:14;11.60;99.90
18163;DHT22;9206;50.994;4.538;2023-08-07T04:57:07;11.50;99.90
18163;DHT22;9206;50.994;4.538;2023-08-07T04:59:54;11.50;99.90
18163;DHT22;9206;50.994;4.538;2023-08-07T05:02:42;11.50;99.90
18163;DHT22;9206;50.994;4.538;2023-08-07T05:05:31;11.50;99.90
18163;DHT22;9206;50.994;4.538;2023-08-07T05:08:24;11.50;99.90
18163;DHT22;9206;50.994;4.538;2023-08-07T05:11:18;11.50;99.90
18163;DHT22;9206;50.994;4.538;2023-08-07T05:14:08;11.50;99.90
18163;DHT22;9206;50.994;4.538;2023-08-07T05:16:57;11.60;99.90
18163;DHT22;9206;50.994;4.538;2023-08-07T05:19:45;11.70;99.90
18163;DHT22;9206;50.994;4.538;2023-08-07T05:22:34;11.70;99.90
18163;DHT22;9206;50.994;4.538;2023-08-07T05:25:24;11.80;99.90
18163;DHT22;9206;50.994;4.538;2023-08-07T05:28:14;11.90;99.90
18163;DHT22;9206;50.994;4.538;2023-08-07T05:31:01;12.00;99.90
18163;DHT22;9206;50.994;4.538;2023-08-07T05:33:52;12.10;99.90
18163;DHT22;9206;50.994;4.538;2023-08-07T05:36:39;12.10;99.90
18163;DHT22;9206;50.994;4.538;2023-08-07T05:39:36;12.20;99.90
18163;DHT22;9206;50.994;4.538;2023-08-07T05:42:30;12.30;99.90
18163;DHT22;9206;50.994;4.538;2023-08-07T05:45:23;12.50;99.90
18163;DHT22;9206;50.994;4.538;2023-08-07T05:48:11;12.60;99.90
18163;DHT22;9206;50.994;4.538;2023-08-07T05:50:58;12.70;99.90
18163;DHT22;9206;50.994;4.538;2023-08-07T05:53:45;12.80;99.90
18163;DHT22;9206;50.994;4.538;2023-08-07T05:56:35;12.90;99.90
18163;DHT22;9206;50.994;4.538;2023-08-07T05:59:22;13.10;99.90
18163;DHT22;9206;50.994;4.538;2023-08-07T06:02:12;13.40;99.90
18163;DHT22;9206;50.994;4.538;2023-08-07T06:05:17;14.00;99.90
18163;DHT22;9206;50.994;4.538;2023-08-07T06:08:04;14.90;99.90
18163;DHT22;9206;50.994;4.538;2023-08-07T06:10:54;15.90;99.90
18163;DHT22;9206;50.994;4.538;2023-08-07T06:13:43;16.80;99.90
18163;DHT22;9206;50.994;4.538;2023-08-07T06:16:30;17.70;99.90
18163;DHT22;9206;50.994;4.538;2023-08-07T06:19:19;18.30;99.90
18163;DHT22;9206;50.994;4.538;2023-08-07T06:22:10;18.70;99.90
18163;DHT22;9206;50.994;4.538;2023-08-07T06:25:04;19.30;99.90
18163;DHT22;9206;50.994;4.538;2023-08-07T06:27:58;19.40;99.90
18163;DHT22;9206;50.994;4.538;2023-08-07T06:30:49;20.10;99.90
18163;DHT22;9206;50.994;4.538;2023-08-07T06:33:42;20.00;99.90
18163;DHT22;9206;50.994;4.538;2023-08-07T06:36:44;20.50;99.90
18163;DHT22;9206;50.994;4.538;2023-08-07T06:39:38;20.90;99.90
18163;DHT22;9206;50.994;4.538;2023-08-07T06:42:27;21.40;99.90
18163;DHT22;9206;50.994;4.538;2023-08-07T06:45:15;21.70;99.90
18163;DHT22;9206;50.994;4.538;2023-08-07T06:48:04;22.00;99.90
18163;DHT22;9206;50.994;4.538;2023-08-07T06:50:54;22.20;99.90
18163;DHT22;9206;50.994;4.538;2023-08-07T06:53:43;22.40;99.90
18163;DHT22;9206;50.994;4.538;2023-08-07T06:56:32;22.40;99.90
18163;DHT22;9206;50.994;4.538;2023-08-07T06:59:22;22.50;99.90
18163;DHT22;9206;50.994;4.538;2023-08-07T07:02:12;22.40;99.90
18163;DHT22;9206;50.994;4.538;2023-08-07T07:05:02;22.60;99.90
18163;DHT22;9206;50.994;4.538;2023-08-07T07:07:50;22.40;99.90
18163;DHT22;9206;50.994;4.538;2023-08-07T07:10:38;22.40;99.90
18163;DHT22;9206;50.994;4.538;2023-08-07T07:13:33;22.70;99.90
18163;DHT22;9206;50.994;4.538;2023-08-07T07:16:26;23.30;99.90
18163;DHT22;9206;50.994;4.538;2023-08-07T07:19:26;23.50;99.90
18163;DHT22;9206;50.994;4.538;2023-08-07T07:22:20;23.10;99.90
18163;DHT22;9206;50.994;4.538;2023-08-07T07:25:22;23.50;99.90
18163;DHT22;9206;50.994;4.538;2023-08-07T07:28:10;23.70;99.90
18163;DHT22;9206;50.994;4.538;2023-08-07T07:31:01;23.80;99.90
18163;DHT22;9206;50.994;4.538;2023-08-07T07:33:49;23.90;99.90
18163;DHT22;9206;50.994;4.538;2023-08-07T07:36:37;24.10;99.90
18163;DHT22;9206;50.994;4.538;2023-08-07T07:39:25;24.20;99.90
18163;DHT22;9206;50.994;4.538;2023-08-07T07:42:15;24.20;99.90
18163;DHT22;9206;50.994;4.538;2023-08-07T07:45:03;24.50;99.90
18163;DHT22;9206;50.994;4.538;2023-08-07T07:47:52;24.80;99.90
18163;DHT22;9206;50.994;4.538;2023-08-07T07:50:45;25.10;99.90
18163;DHT22;9206;50.994;4.538;2023-08-07T07:53:38;25.30;99.90
18163;DHT22;9206;50.994;4.538;2023-08-07T07:56:31;25.50;99.90
18163;DHT22;9206;50.994;4.538;2023-08-07T07:59:19;25.10;99.90
18163;DHT22;9206;50.994;4.538;2023-08-07T08:02:10;24.70;99.90
18163;DHT22;9206;50.994;4.538;2023-08-07T08:04:59;25.10;99.90
18163;DHT22;9206;50.994;4.538;2023-08-07T08:07:56;25.80;99.90
18163;DHT22;9206;50.994;4.538;2023-08-07T08:10:44;25.90;99.90
18163;DHT22;9206;50.994;4.538;2023-08-07T08:13:34;25.40;99.90
18163;DHT22;9206;50.994;4.538;2023-08-07T08:16:24;25.00;99.90
18163;DHT22;9206;50.994;4.538;2023-08-07T08:19:18;24.00;99.90
18163;DHT22;9206;50.994;4.538;2023-08-07T08:22:07;22.90;99.90
18163;DHT22;9206;50.994;4.538;2023-08-07T08:24:54;21.80;99.90
18163;DHT22;9206;50.994;4.538;2023-08-07T08:27:42;21.10;99.90
18163;DHT22;9206;50.994;4.538;2023-08-07T08:30:31;21.80;99.90
18163;DHT22;9206;50.994;4.538;2023-08-07T08:33:25;22.40;99.90
18163;DHT22;9206;50.994;4.538;2023-08-07T08:36:14;22.70;99.90
18163;DHT22;9206;50.994;4.538;2023-08-07T08:39:22;23.60;99.90
18163;DHT22;9206;50.994;4.538;2023-08-07T08:42:12;23.00;99.90
18163;DHT22;9206;50.994;4.538;2023-08-07T08:45:05;22.60;99.90
18163;DHT22;9206;50.994;4.538;2023-08-07T08:47:55;21.80;99.90
18163;DHT22;9206;50.994;4.538;2023-08-07T08:50:49;20.70;99.90
18163;DHT22;9206;50.994;4.538;2023-08-07T08:53:37;20.80;99.90
18163;DHT22;9206;50.994;4.538;2023-08-07T08:56:29;21.40;99.90
18163;DHT22;9206;50.994;4.538;2023-08-07T08:59:18;22.80;99.90
18163;DHT22;9206;50.994;4.538;2023-08-07T09:02:11;24.30;99.90
18163;DHT22;9206;50.994;4.538;2023-08-07T09:05:02;26.30;99.90
18163;DHT22;9206;50.994;4.538;2023-08-07T09:07:50;27.80;99.90
18163;DHT22;9206;50.994;4.538;2023-08-07T09:10:44;27.90;99.90
18163;DHT22;9206;50.994;4.538;2023-08-07T09:13:37;27.40;99.90
18163;DHT22;9206;50.994;4.538;2023-08-07T09:16:31;25.90;99.90
18163;DHT22;9206;50.994;4.538;2023-08-07T09:19:19;25.20;99.90
18163;DHT22;9206;50.994;4.538;2023-08-07T09:22:07;25.40;99.90
18163;DHT22;9206;50.994;4.538;2023-08-07T09:24:55;26.20;99.90
18163;DHT22;9206;50.994;4.538;2023-08-07T09:27:51;26.50;99.90
18163;DHT22;9206;50.994;4.538;2023-08-07T09:30:46;26.00;99.90
18163;DHT22;9206;50.994;4.538;2023-08-07T09:33:36;25.40;99.90
18163;DHT22;9206;50.994;4.538;2023-08-07T09:36:26;25.70;99.90
18163;DHT22;9206;50.994;4.538;2023-08-07T09:39:13;26.90;99.90
18163;DHT22;9206;50.994;4.538;2023-08-07T09:42:02;27.20;99.90
18163;DHT22;9206;50.994;4.538;2023-08-07T09:44:50;26.20;99.90
18163;DHT22;9206;50.994;4.538;2023-08-07T09:47:42;25.30;99.90
18163;DHT22;9206;50.994;4.538;2023-08-07T09:50:31;24.60;99.90
18163;DHT22;9206;50.994;4.538;2023-08-07T09:53:25;25.30;99.90
18163;DHT22;9206;50.994;4.538;2023-08-07T09:56:14;26.10;99.90
18163;DHT22;9206;50.994;4.538;2023-08-07T09:59:09;25.80;99.90
18163;DHT22;9206;50.994;4.538;2023-08-07T10:01:56;25.60;99.90
18163;DHT22;9206;50.994;4.538;2023-08-07T10:04:53;25.20;99.90
18163;DHT22;9206;50.994;4.538;2023-08-07T10:07:41;24.40;99.90
18163;DHT22;9206;50.994;4.538;2023-08-07T10:10:29;25.10;99.90
18163;DHT22;9206;50.994;4.538;2023-08-07T10:13:20;25.40;99.90
18163;DHT22;9206;50.994;4.538;2023-08-07T10:16:12;25.50;99.90
18163;DHT22;9206;50.994;4.538;2023-08-07T10:19:00;26.80;99.90
18163;DHT22;9206;50.994;4.538;2023-08-07T10:21:49;27.60;99.90
18163;DHT22;9206;50.994;4.538;2023-08-07T10:24:40;28.30;99.90
18163;DHT22;9206;50.994;4.538;2023-08-07T10:27:34;28.50;99.90
18163;DHT22;9206;50.994;4.538;2023-08-07T10:30:23;28.90;99.90
18163;DHT22;9206;50.994;4.538;2023-08-07T10:33:13;29.20;99.90
18163;DHT22;9206;50.994;4.538;2023-08-07T10:36:08;28.70;99.90
18163;DHT22;9206;50.994;4.538;2023-08-07T10:39:08;28.00;99.90
18163;DHT22;9206;50.994;4.538;2023-08-07T10:41:58;25.90;99.90
18163;DHT22;9206;50.994;4.538;2023-08-07T10:44:48;24.70;99.90
18163;DHT22;9206;50.994;4.538;2023-08-07T10:47:37;24.80;99.90
18163;DHT22;9206;50.994;4.538;2023-08-07T10:50:31;26.10;99.90
18163;DHT22;9206;50.994;4.538;2023-08-07T10:53:29;27.30;99.90
18163;DHT22;9206;50.994;4.538;2023-08-07T10:56:31;26.70;99.90
18163;DHT22;9206;50.994;4.538;2023-08-07T10:59:21;26.10;99.90
18163;DHT22;9206;50.994;4.538;2023-08-07T11:02:23;25.50;99.90
18163;DHT22;9206;50.994;4.538;2023-08-07T11:05:17;25.30;99.90
18163;DHT22;9206;50.994;4.538;2023-08-07T11:08:07;26.30;99.90
18163;DHT22;9206;50.994;4.538;2023-08-07T11:11:04;26.70;99.90
18163;DHT22;9206;50.994;4.538;2023-08-07T11:13:59;27.40;99.90
18163;DHT22;9206;50.994;4.538;2023-08-07T11:16:55;26.90;99.90
18163;DHT22;9206;50.994;4.538;2023-08-07T11:19:50;25.80;99.90
18163;DHT22;9206;50.994;4.538;2023-08-07T11:22:46;25.30;99.90
18163;DHT22;9206;50.994;4.538;2023-08-07T11:25:33;26.10;99.90
18163;DHT22;9206;50.994;4.538;2023-08-07T11:28:24;27.40;99.90
18163;DHT22;9206;50.994;4.538;2023-08-07T11:31:15;27.10;99.90
18163;DHT22;9206;50.994;4.538;2023-08-07T11:34:08;26.30;99.90
18163;DHT22;9206;50.994;4.538;2023-08-07T11:37:08;26.10;99.90
18163;DHT22;9206;50.994;4.538;2023-08-07T11:40:07;27.20;99.90
18163;DHT22;9206;50.994;4.538;2023-08-07T11:43:04;27.70;99.90
18163;DHT22;9206;50.994;4.538;2023-08-07T11:46:04;26.70;99.90
18163;DHT22;9206;50.994;4.538;2023-08-07T11:49:01;25.80;99.90
18163;DHT22;9206;50.994;4.538;2023-08-07T11:51:54;26.40;99.90
18163;DHT22;9206;50.994;4.538;2023-08-07T11:54:52;26.70;99.90
18163;DHT22;9206;50.994;4.538;2023-08-07T11:57:40;26.50;99.90
18163;DHT22;9206;50.994;4.538;2023-08-07T12:00:32;26.20;99.90
18163;DHT22;9206;50.994;4.538;2023-08-07T12:03:26;26.10;99.90
18163;DHT22;9206;50.994;4.538;2023-08-07T12:06:19;25.70;99.90
18163;DHT22;9206;50.994;4.538;2023-08-07T12:09:12;25.10;99.90
18163;DHT22;9206;50.994;4.538;2023-08-07T12:12:03;24.40;99.90
18163;DHT22;9206;50.994;4.538;2023-08-07T12:14:53;23.70;99.90
18163;DHT22;9206;50.994;4.538;2023-08-07T12:17:41;23.60;99.90
18163;DHT22;9206;50.994;4.538;2023-08-07T12:20:31;23.50;99.90
18163;DHT22;9206;50.994;4.538;2023-08-07T12:23:36;23.30;99.90
18163;DHT22;9206;50.994;4.538;2023-08-07T12:26:25;23.30;99.90
18163;DHT22;9206;50.994;4.538;2023-08-07T12:29:15;24.20;99.90
18163;DHT22;9206;50.994;4.538;2023-08-07T12:32:08;24.30;99.90
18163;DHT22;9206;50.994;4.538;2023-08-07T12:35:13;24.00;99.90
18163;DHT22;9206;50.994;4.538;2023-08-07T12:38:08;23.80;99.90
18163;DHT22;9206;50.994;4.538;2023-08-07T12:41:06;24.10;99.90
18163;DHT22;9206;50.994;4.538;2023-08-07T12:43:54;24.20;99.90
18163;DHT22;9206;50.994;4.538;2023-08-07T12:47:06;23.70;99.90
18163;DHT22;9206;50.994;4.538;2023-08-07T12:50:00;23.30;99.90
18163;DHT22;9206;50.994;4.538;2023-08-07T12:52:49;22.90;99.90
18163;DHT22;9206;50.994;4.538;2023-08-07T12:55:42;22.70;99.90
18163;DHT22;9206;50.994;4.538;2023-08-07T12:58:31;23.00;99.90
18163;DHT22;9206;50.994;4.538;2023-08-07T13:01:23;23.60;99.90
18163;DHT22;9206;50.994;4.538;2023-08-07T13:04:12;23.10;99.90
18163;DHT22;9206;50.994;4.538;2023-08-07T13:07:08;22.70;99.90
18163;DHT22;9206;50.994;4.538;2023-08-07T13:13:21;22.40;99.90
18163;DHT22;9206;50.994;4.538;2023-08-07T13:16:29;22.40;99.90
18163;DHT22;9206;50.994;4.538;2023-08-07T13:19:20;22.60;99.90
18163;DHT22;9206;50.994;4.538;2023-08-07T13:22:15;22.60;99.90
18163;DHT22;9206;50.994;4.538;2023-08-07T13:25:06;22.30;99.90
18163;DHT22;9206;50.994;4.538;2023-08-07T13:27:54;22.20;99.90
18163;DHT22;9206;50.994;4.538;2023-08-07T13:30:57;22.60;99.90
18163;DHT22;9206;50.994;4.538;2023-08-07T13:33:55;23.30;99.90
18163;DHT22;9206;50.994;4.538;2023-08-07T13:36:56;23.70;99.90
18163;DHT22;9206;50.994;4.538;2023-08-07T13:40:07;23.40;99.90
18163;DHT22;9206;50.994;4.538;2023-08-07T13:43:00;23.40;99.90
18163;DHT22;9206;50.994;4.538;2023-08-07T13:45:53;23.00;99.90
18163;DHT22;9206;50.994;4.538;2023-08-07T13:48:42;22.70;99.90
18163;DHT22;9206;50.994;4.538;2023-08-07T13:51:42;22.30;99.90
18163;DHT22;9206;50.994;4.538;2023-08-07T13:54:33;22.20;99.90
18163;DHT22;9206;50.994;4.538;2023-08-07T13:57:22;22.60;99.90
18163;DHT22;9206;50.994;4.538;2023-08-07T14:00:24;22.70;99.90
18163;DHT22;9206;50.994;4.538;2023-08-07T14:03:55;22.70;99.90
18163;DHT22;9206;50.994;4.538;2023-08-07T14:11:18;22.40;99.90
18163;DHT22;9206;50.994;4.538;2023-08-07T14:26:56;22.10;99.90
18163;DHT22;9206;50.994;4.538;2023-08-07T14:30:02;22.20;99.90
18163;DHT22;9206;50.994;4.538;2023-08-07T14:33:11;23.00;99.90
18163;DHT22;9206;50.994;4.538;2023-08-07T14:41:47;23.60;99.90
18163;DHT22;9206;50.994;4.538;2023-08-07T14:44:52;23.20;99.90
18163;DHT22;9206;50.994;4.538;2023-08-07T14:48:07;23.40;99.90
18163;DHT22;9206;50.994;4.538;2023-08-07T14:50:56;23.10;99.90
18163;DHT22;9206;50.994;4.538;2023-08-07T14:53:44;22.80;99.90
18163;DHT22;9206;50.994;4.538;2023-08-07T14:56:41;23.10;99.90
18163;DHT22;9206;50.994;4.538;2023-08-07T14:59:35;23.30;99.90
18163;DHT22;9206;50.994;4.538;2023-08-07T15:02:30;22.80;99.90
18163;DHT22;9206;50.994;4.538;2023-08-07T15:05:18;22.80;99.90
18163;DHT22;9206;50.994;4.538;2023-08-07T15:08:13;23.00;99.90
18163;DHT22;9206;50.994;4.538;2023-08-07T15:11:01;23.00;99.90
18163;DHT22;9206;50.994;4.538;2023-08-07T15:13:49;22.90;99.90
18163;DHT22;9206;50.994;4.538;2023-08-07T15:16:37;22.80;99.90
18163;DHT22;9206;50.994;4.538;2023-08-07T15:19:32;22.90;99.90
18163;DHT22;9206;50.994;4.538;2023-08-07T15:22:27;22.90;99.90
18163;DHT22;9206;50.994;4.538;2023-08-07T15:25:34;22.90;99.90
18163;DHT22;9206;50.994;4.538;2023-08-07T15:28:29;22.80;99.90
18163;DHT22;9206;50.994;4.538;2023-08-07T15:31:23;22.70;99.90
18163;DHT22;9206;50.994;4.538;2023-08-07T15:34:14;22.60;99.90
18163;DHT22;9206;50.994;4.538;2023-08-07T15:37:06;22.40;99.90
18163;DHT22;9206;50.994;4.538;2023-08-07T15:39:55;22.20;99.90
18163;DHT22;9206;50.994;4.538;2023-08-07T15:42:49;22.00;99.90
18163;DHT22;9206;50.994;4.538;2023-08-07T15:45:38;22.00;99.90
18163;DHT22;9206;50.994;4.538;2023-08-07T15:48:26;21.90;99.90
18163;DHT22;9206;50.994;4.538;2023-08-07T15:51:22;21.90;99.90
18163;DHT22;9206;50.994;4.538;2023-08-07T15:54:13;22.00;99.90
18163;DHT22;9206;50.994;4.538;2023-08-07T15:57:10;22.40;99.90
18163;DHT22;9206;50.994;4.538;2023-08-07T16:00:06;22.40;99.90
18163;DHT22;9206;50.994;4.538;2023-08-07T16:03:27;22.20;99.90
18163;DHT22;9206;50.994;4.538;2023-08-07T16:10:14;22.30;99.90
18163;DHT22;9206;50.994;4.538;2023-08-07T16:13:31;22.00;99.90
18163;DHT22;9206;50.994;4.538;2023-08-07T16:16:26;21.70;99.90
18163;DHT22;9206;50.994;4.538;2023-08-07T16:19:33;21.40;99.90
18163;DHT22;9206;50.994;4.538;2023-08-07T16:22:29;21.40;99.90
18163;DHT22;9206;50.994;4.538;2023-08-07T16:25:26;21.50;99.90
18163;DHT22;9206;50.994;4.538;2023-08-07T16:28:19;21.40;99.90
18163;DHT22;9206;50.994;4.538;2023-08-07T16:31:16;21.40;99.90
18163;DHT22;9206;50.994;4.538;2023-08-07T16:34:05;21.30;99.90
18163;DHT22;9206;50.994;4.538;2023-08-07T16:37:10;21.30;99.90
18163;DHT22;9206;50.994;4.538;2023-08-07T16:40:10;21.20;99.90
18163;DHT22;9206;50.994;4.538;2023-08-07T16:43:00;21.20;99.90
18163;DHT22;9206;50.994;4.538;2023-08-07T16:55:29;20.40;99.90
18163;DHT22;9206;50.994;4.538;2023-08-07T17:55:23;19.60;99.90
18163;DHT22;9206;50.994;4.538;2023-08-07T17:58:17;19.50;99.90
18163;DHT22;9206;50.994;4.538;2023-08-07T18:01:04;19.50;99.90
18163;DHT22;9206;50.994;4.538;2023-08-07T18:03:59;19.40;99.90
18163;DHT22;9206;50.994;4.538;2023-08-07T18:06:50;19.30;99.90
18163;DHT22;9206;50.994;4.538;2023-08-07T18:09:47;19.20;99.90
18163;DHT22;9206;50.994;4.538;2023-08-07T18:12:37;19.10;99.90
18163;DHT22;9206;50.994;4.538;2023-08-07T18:18:49;19.00;99.90
18163;DHT22;9206;50.994;4.538;2023-08-07T18:21:50;18.90;99.90
18163;DHT22;9206;50.994;4.538;2023-08-07T18:25:14;18.90;99.90
18163;DHT22;9206;50.994;4.538;2023-08-07T18:28:34;18.70;99.90
18163;DHT22;9206;50.994;4.538;2023-08-07T18:31:28;18.60;99.90
18163;DHT22;9206;50.994;4.538;2023-08-07T18:34:18;18.50;99.90
18163;DHT22;9206;50.994;4.538;2023-08-07T18:37:07;18.40;99.90
18163;DHT22;9206;50.994;4.538;2023-08-07T18:39:57;18.30;99.90
18163;DHT22;9206;50.994;4.538;2023-08-07T18:42:47;18.20;99.90
18163;DHT22;9206;50.994;4.538;2023-08-07T18:45:43;18.20;99.90
18163;DHT22;9206;50.994;4.538;2023-08-07T18:48:34;18.10;99.90
18163;DHT22;9206;50.994;4.538;2023-08-07T18:51:23;18.00;99.90
18163;DHT22;9206;50.994;4.538;2023-08-07T18:54:11;17.90;99.90
18163;DHT22;9206;50.994;4.538;2023-08-07T18:57:05;17.80;99.90
18163;DHT22;9206;50.994;4.538;2023-08-07T18:59:54;17.70;99.90
18163;DHT22;9206;50.994;4.538;2023-08-07T19:02:44;17.70;99.90
18163;DHT22;9206;50.994;4.538;2023-08-07T19:05:38;17.60;99.90
18163;DHT22;9206;50.994;4.538;2023-08-07T19:08:34;17.50;99.90
18163;DHT22;9206;50.994;4.538;2023-08-07T19:11:22;17.30;99.90
18163;DHT22;9206;50.994;4.538;2023-08-07T19:14:13;17.20;99.90
18163;DHT22;9206;50.994;4.538;2023-08-07T19:17:12;17.10;99.90
18163;DHT22;9206;50.994;4.538;2023-08-07T19:20:08;17.00;99.90
18163;DHT22;9206;50.994;4.538;2023-08-07T19:22:59;16.90;99.90
18163;DHT22;9206;50.994;4.538;2023-08-07T19:25:54;16.70;99.90
18163;DHT22;9206;50.994;4.538;2023-08-07T19:28:45;16.50;99.90
18163;DHT22;9206;50.994;4.538;2023-08-07T19:31:34;16.40;99.90
18163;DHT22;9206;50.994;4.538;2023-08-07T19:34:23;16.20;99.90
18163;DHT22;9206;50.994;4.538;2023-08-07T19:37:12;16.10;99.90
18163;DHT22;9206;50.994;4.538;2023-08-07T19:40:03;16.00;99.90
18163;DHT22;9206;50.994;4.538;2023-08-07T19:42:53;15.90;99.90
18163;DHT22;9206;50.994;4.538;2023-08-07T19:45:43;15.80;99.90
18163;DHT22;9206;50.994;4.538;2023-08-07T19:48:37;15.70;99.90
18163;DHT22;9206;50.994;4.538;2023-08-07T19:51:28;15.60;99.90
18163;DHT22;9206;50.994;4.538;2023-08-07T19:54:19;15.50;99.90
18163;DHT22;9206;50.994;4.538;2023-08-07T19:57:07;15.40;99.90
18163;DHT22;9206;50.994;4.538;2023-08-07T19:59:54;15.40;99.90
18163;DHT22;9206;50.994;4.538;2023-08-07T20:02:44;15.30;99.90
18163;DHT22;9206;50.994;4.538;2023-08-07T20:05:37;15.20;99.90